This is the latest recevied weather packets stored in our database for station/object OE5HCE. If no packets are shown the sender has not sent any weather packets the latest 10 day(s).
| Time | Temp. | Humidity | Pressure | Rain* | Wind** | Luminosity | Snow |
|---|---|---|---|---|---|---|---|
| 1787974206 | 15.56° C | 77% | 1017.4 hPa | 0 mm | - | 0 W/m² | - |
| 1787973305 | 15.56° C | 77% | 1017.5 hPa | 0 mm | - | 0 W/m² | - |
| 1787972404 | 15.56° C | 77% | 1017.7 hPa | 0 mm | - | 0 W/m² | - |
| 1787971508 | 15.56° C | 77% | 1017.7 hPa | 0 mm | - | 0 W/m² | - |
| 1787970602 | 16.11° C | 77% | 1017.6 hPa | 0 mm | - | 0 W/m² | - |
| 1787969702 | 16.11° C | 76% | 1017.6 hPa | 0 mm | - | 0 W/m² | - |
| 1787968801 | 16.11° C | 76% | 1017.6 hPa | 0 mm | - | 0 W/m² | - |
| 1787967975 | 15.56° C | 76% | 1017.6 hPa | 0 mm | - | 0 W/m² | - |
| 1787967060 | 16.11° C | 76% | 1017.4 hPa | 0 mm | - | 0 W/m² | - |
| 1787966162 | 15.56° C | 76% | 1017.3 hPa | 0 mm | - | 0 W/m² | - |
| 1787965257 | 15.56° C | 74% | 1017.4 hPa | 0 mm | - | 0 W/m² | - |
| 1787964357 | 16.11° C | 73% | 1017.8 hPa | 0 mm | - | 0 W/m² | - |
| 1787963454 | 16.11° C | 71% | 1018.3 hPa | 0 mm | - | 0 W/m² | - |
| 1787962553 | 16.11° C | 65% | 1018.6 hPa | 0 mm | - | 0 W/m² | - |
| 1787961652 | 16.11° C | 53% | 1018.8 hPa | 0 mm | - | 0 W/m² | - |
| 1787960751 | 16.11° C | 45% | 1019 hPa | 0.51 mm | - | 0 W/m² | - |
| 1787959849 | 16.11° C | 48% | 1019 hPa | 2.03 mm | - | 0 W/m² | - |
| 1787958947 | 15.56° C | 54% | 1019.3 hPa | 2.54 mm | - | 0 W/m² | - |
| 1787958043 | 15.56° C | 60% | 1019 hPa | 3.3 mm | - | 0 W/m² | - |
| 1787957170 | 16.11° C | 67% | 1018.9 hPa | 2.54 mm | - | 0 W/m² | - |
| 1787956237 | 17.78° C | 62% | 1018.2 hPa | 1.27 mm | - | 0 W/m² | - |
| 1787955336 | 18.89° C | 61% | 1017.4 hPa | 0.51 mm | - | 0 W/m² | - |
| 1787954428 | 19.44° C | 59% | 1017.3 hPa | 0 mm | - | 0 W/m² | - |
| 1787953525 | 19.44° C | 57% | 1016.6 hPa | 0 mm | - | 0 W/m² | - |
| 1787952622 | 19.44° C | 59% | 1016.1 hPa | 0 mm | - | 0 W/m² | - |
* Rain latest hour (hover to see other rain measurements)
** Current wind speed in m/s (hover to see current wind gust speed)